METAR-Meldungen aus der Umgebung

   
EDMO - Oberpfaffenhofen, Germany
Entfernung von der Station bis: SSO 18 km
Aktualisierung: 22-06-2024 05:50
Bewölkt  
Bewölkt  
   Wind: Westen 9.3 km/h
Wind: Westen 9.3 km/h
Temperatur: 14°C
Taupunkt: 12°C
Luftfeuchte: 88%
Luftdruck: 1017 hPa
Bewölkt: Overcast
Sichtbarkeit: Mehr als 10 km
Bewölkung: Stark bewölkt 1500 ft,
Stark bewölkt 2300 ft,
Bewölkt 8300 ft
EDMO 220350Z AUTO 27005KT 230V290 9999 // BKN015/// BKN023/// OVC083/// 14/12 Q1017
ETSL - Lechfeld (ger-Af, Germany
Entfernung von der Station bis: WSW 23 km
Aktualisierung: 22-06-2024 05:20
  
  
   Wind: SSW 13 km/h
Wind: SSW 13 km/h
Temperatur: 13°C
Taupunkt: 12°C
Luftfeuchte: 94%
Luftdruck: 1017 hPa
Sichtbarkeit: Mehr als 10 km
ETSL 220320Z AUTO 21007KT 9999 // ////// 13/12 Q1017 ///
EDMA - Augsburg/Mulhaus, Germany
Entfernung von der Station bis: NW 30 km
Aktualisierung: 22-06-2024 05:50
Stark bewölkt  
Stark bewölkt  
   Wind: SW 9.3 km/h
Wind: SW 9.3 km/h
Temperatur: 14°C
Taupunkt: 13°C
Luftfeuchte: 94%
Luftdruck: 1017 hPa
Bewölkt: Mostly Cloudy
Sichtbarkeit: Mehr als 10 km
Bewölkung: Teilweise bewölkt 7400 ft,
Stark bewölkt 9700 ft,
Stark bewölkt 14000 ft
EDMA 220350Z AUTO 23005KT 200V260 9999 // SCT074/// BKN097/// BKN140/// 14/13 Q1017
ETHA - Altenstadt/Schon, Germany
Entfernung von der Station bis: SSW 49 km
Aktualisierung: 22-06-2024 05:20
  
  
   Wind: Westen 16.7 km/h
Wind: Westen 16.7 km/h
Temperatur: 13°C
Taupunkt: 11°C
Luftfeuchte: 88%
Luftdruck: 1017 hPa
Sichtbarkeit: Mehr als 10 km
ETHA 220320Z AUTO 26009KT 9999 // ////// 13/11 Q1017 ///
EDDM - Munich-Flughafen, Germany
Entfernung von der Station bis: ONO 50 km
Aktualisierung: 22-06-2024 05:50
leicht bewölkt  
leicht bewölkt  
   Wind: SSW 14.8 km/h
Wind: SSW 14.8 km/h
Temperatur: 13°C
Taupunkt: 12°C
Luftfeuchte: 94%
Luftdruck: 1016 hPa
Bewölkt: Few Clouds
Sichtbarkeit: Mehr als 10 km
Bewölkung: leicht bewölkt 1700 ft
EDDM 220350Z AUTO 21008KT 9999 FEW017 13/12 Q1016 NOSIG
 

Script entwickelt von  Saratoga-weather.org Angepasst für das Template von  Weerstation Leuven